Nichiryu Maru — JG5632 — position and weather

sailwx.info

Track history (hours):
 
Tides and Currents Weather Stations Pressure Air Temp Water Temp Dewpoint Dewpoint Depression Visibility Wind Speed Wind Dir Waves Ship Positions

Nichiryu Maru

Last reported at 2015-Mar-30 15:33 UTC. Time now 2015-Mar-30 16:21 UTC.
Position N 34°25' E 138°27'.

Length 158 m; draft 6.5 m.

Type: Cargo ship. MMSI: 43100939.

Date/timePositionNaut miles runAvg speedWind from/ knotsBaromVisibWave heightAir tempDewpointWater temp
2015-Mar-30 15:33N 34°25' E 138°27'5317.5
2015-Mar-30 12:32N 34°51' E 139°22'1717.3
2015-Mar-30 11:34N 35°03' E 139°37'1514.9
2015-Mar-30 10:33N 35°16' E 139°46'6 6.2
2015-Mar-30 09:32N 35°19' E 139°39'0 0.0
2015-Mar-30 08:32N 35°19' E 139°39'0 0.0
2015-Mar-30 07:32N 35°19' E 139°39'0 0.0
2015-Mar-30 06:32N 35°19' E 139°39'0 0.0
2015-Mar-30 05:32N 35°19' E 139°39'0 0.0
2015-Mar-30 04:32N 35°19' E 139°39'0 0.0
2015-Mar-30 03:32N 35°19' E 139°39'0 0.0
2015-Mar-30 02:32N 35°19' E 139°39'0 0.0
2015-Mar-30 01:33N 35°19' E 139°39'0 0.0
2015-Mar-30 00:34N 35°19' E 139°39'0 0.0
2015-Mar-29 23:34N 35°19' E 139°39'2 2.3
2015-Mar-29 22:34N 35°20' E 139°42'0 0.1
2015-Mar-29 21:30N 35°20' E 139°42'0 0.0
2015-Mar-29 20:33N 35°20' E 139°42'0 0.0
2015-Mar-29 19:33N 35°20' E 139°42'0 0.0
2015-Mar-29 18:33N 35°20' E 139°42'0 0.0
2015-Mar-29 17:30N 35°20' E 139°42'0 0.0
2015-Mar-29 16:30N 35°20' E 139°42'0 0.1
2015-Mar-29 15:30N 35°20' E 139°42'0 0.0
2015-Mar-29 14:33N 35°20' E 139°42'0 0.0
2015-Mar-29 13:33N 35°20' E 139°42'0 0.1
2015-Mar-29 12:34N 35°20' E 139°42'1211.7
2015-Mar-29 11:33N 35°09' E 139°46'2120.5
2015-Mar-29 10:33N 34°54' E 139°29'5120.4
2015-Mar-29 08:03N 34°30' E 138°34'181 3.8
2015-Mar-27 08:21N 34°36' E 134°54'1417.0
2015-Mar-27 07:33N 34°37' E 135°11'5 4.5
2015-Mar-27 06:31N 34°41' E 135°13'0 0.0
2015-Mar-27 05:31N 34°41' E 135°13'0 0.0
2015-Mar-27 04:33N 34°41' E 135°13'0 0.0
2015-Mar-27 03:33N 34°41' E 135°13'8 8.4
2015-Mar-27 02:33N 34°32' E 135°13'1818.1
2015-Mar-27 01:33N 34°18' E 134°60'1818.2
2015-Mar-27 00:33N 33°60' E 135°01'17316.9
2015-Mar-26 14:16N 34°27' E 138°28'5819.2
2015-Mar-26 11:15N 34°57' E 139°29'1318.9
2015-Mar-26 10:33N 35°06' E 139°41'1312.5
2015-Mar-26 09:33N 35°18' E 139°44'4 3.8
2015-Mar-26 08:29N 35°19' E 139°39'0 0.0
2015-Mar-26 07:32N 35°19' E 139°39'0 0.0
2015-Mar-26 06:29N 35°19' E 139°39'0 0.0
2015-Mar-26 05:29N 35°19' E 139°39'0 0.0
2015-Mar-26 04:33N 35°19' E 139°39'3 3.4
2015-Mar-26 03:34N 35°18' E 139°43'1211.7
2015-Mar-26 02:34N 35°07' E 139°45'  
2015-Mar-23 15:23N 34°27' E 138°28'6316.5
2015-Mar-23 11:33N 34°60' E 139°33'1717.2
2015-Mar-23 10:33N 35°13' E 139°46'8 8.1
2015-Mar-23 09:31N 35°19' E 139°39'0 0.0
2015-Mar-23 08:29N 35°19' E 139°39'0 0.0
2015-Mar-23 07:31N 35°19' E 139°39'0 0.0
2015-Mar-23 06:32N 35°19' E 139°39'0 0.0
2015-Mar-23 05:29N 35°19' E 139°39'0 0.0
2015-Mar-23 04:32N 35°19' E 139°39'0 0.0
2015-Mar-23 03:29N 35°19' E 139°39'0 0.0
2015-Mar-23 02:32N 35°19' E 139°39'0 0.0
2015-Mar-23 01:26N 35°19' E 139°39'0 0.0
2015-Mar-23 00:23N 35°19' E 139°39'0 0.0
2015-Mar-22 23:33N 35°19' E 139°39'2 1.8
2015-Mar-22 22:33N 35°19' E 139°41'0 0.1
2015-Mar-22 21:31N 35°19' E 139°41'0 0.0
2015-Mar-22 20:31N 35°19' E 139°41'0 0.1
2015-Mar-22 19:31N 35°19' E 139°41'0 0.0
2015-Mar-22 18:31N 35°19' E 139°41'0 0.1
2015-Mar-22 17:31N 35°19' E 139°41'0 0.1
2015-Mar-22 16:31N 35°19' E 139°41'0 0.2
2015-Mar-22 15:28N 35°19' E 139°41'0 0.0
2015-Mar-22 14:28N 35°19' E 139°41'0 0.1
2015-Mar-22 13:28N 35°19' E 139°41'6 6.7
2015-Mar-22 12:34N 35°15' E 139°47'1817.8
2015-Mar-22 11:33N 34°60' E 139°36'  
Track history (hours):
 
Tides and Currents Weather Stations Pressure Air Temp Water Temp Dewpoint Dewpoint Depression Visibility Wind Speed Wind Dir Waves Ship Positions

Nichiryu Maru

Last reported at 2015-Mar-30 15:33 UTC. Time now 2015-Mar-30 16:21 UTC.
Position N 34°25' E 138°27'.

Length 158 m; draft 6.5 m.

Type: Cargo ship. MMSI: 43100939.

Date/timePositionNaut miles runAvg speedWind from/ knotsBaromVisibWave heightAir tempDewpointWater temp
2015-Mar-30 15:33N 34°25' E 138°27'5317.5
2015-Mar-30 12:32N 34°51' E 139°22'1717.3
2015-Mar-30 11:34N 35°03' E 139°37'1514.9
2015-Mar-30 10:33N 35°16' E 139°46'6 6.2
2015-Mar-30 09:32N 35°19' E 139°39'0 0.0
2015-Mar-30 08:32N 35°19' E 139°39'0 0.0
2015-Mar-30 07:32N 35°19' E 139°39'0 0.0
2015-Mar-30 06:32N 35°19' E 139°39'0 0.0
2015-Mar-30 05:32N 35°19' E 139°39'0 0.0
2015-Mar-30 04:32N 35°19' E 139°39'0 0.0
2015-Mar-30 03:32N 35°19' E 139°39'0 0.0
2015-Mar-30 02:32N 35°19' E 139°39'0 0.0
2015-Mar-30 01:33N 35°19' E 139°39'0 0.0
2015-Mar-30 00:34N 35°19' E 139°39'0 0.0
2015-Mar-29 23:34N 35°19' E 139°39'2 2.3
2015-Mar-29 22:34N 35°20' E 139°42'0 0.1
2015-Mar-29 21:30N 35°20' E 139°42'0 0.0
2015-Mar-29 20:33N 35°20' E 139°42'0 0.0
2015-Mar-29 19:33N 35°20' E 139°42'0 0.0
2015-Mar-29 18:33N 35°20' E 139°42'0 0.0
2015-Mar-29 17:30N 35°20' E 139°42'0 0.0
2015-Mar-29 16:30N 35°20' E 139°42'0 0.1
2015-Mar-29 15:30N 35°20' E 139°42'0 0.0
2015-Mar-29 14:33N 35°20' E 139°42'0 0.0
2015-Mar-29 13:33N 35°20' E 139°42'0 0.1
2015-Mar-29 12:34N 35°20' E 139°42'1211.7
2015-Mar-29 11:33N 35°09' E 139°46'2120.5
2015-Mar-29 10:33N 34°54' E 139°29'5120.4
2015-Mar-29 08:03N 34°30' E 138°34'181 3.8
2015-Mar-27 08:21N 34°36' E 134°54'1417.0
2015-Mar-27 07:33N 34°37' E 135°11'5 4.5
2015-Mar-27 06:31N 34°41' E 135°13'0 0.0
2015-Mar-27 05:31N 34°41' E 135°13'0 0.0
2015-Mar-27 04:33N 34°41' E 135°13'0 0.0
2015-Mar-27 03:33N 34°41' E 135°13'8 8.4
2015-Mar-27 02:33N 34°32' E 135°13'1818.1
2015-Mar-27 01:33N 34°18' E 134°60'1818.2
2015-Mar-27 00:33N 33°60' E 135°01'17316.9
2015-Mar-26 14:16N 34°27' E 138°28'5819.2
2015-Mar-26 11:15N 34°57' E 139°29'1318.9
2015-Mar-26 10:33N 35°06' E 139°41'1312.5
2015-Mar-26 09:33N 35°18' E 139°44'4 3.8
2015-Mar-26 08:29N 35°19' E 139°39'0 0.0
2015-Mar-26 07:32N 35°19' E 139°39'0 0.0
2015-Mar-26 06:29N 35°19' E 139°39'0 0.0
2015-Mar-26 05:29N 35°19' E 139°39'0 0.0
2015-Mar-26 04:33N 35°19' E 139°39'3 3.4
2015-Mar-26 03:34N 35°18' E 139°43'1211.7
2015-Mar-26 02:34N 35°07' E 139°45'  
2015-Mar-23 15:23N 34°27' E 138°28'6316.5
2015-Mar-23 11:33N 34°60' E 139°33'1717.2
2015-Mar-23 10:33N 35°13' E 139°46'8 8.1
2015-Mar-23 09:31N 35°19' E 139°39'0 0.0
2015-Mar-23 08:29N 35°19' E 139°39'0 0.0
2015-Mar-23 07:31N 35°19' E 139°39'0 0.0
2015-Mar-23 06:32N 35°19' E 139°39'0 0.0
2015-Mar-23 05:29N 35°19' E 139°39'0 0.0
2015-Mar-23 04:32N 35°19' E 139°39'0 0.0
2015-Mar-23 03:29N 35°19' E 139°39'0 0.0
2015-Mar-23 02:32N 35°19' E 139°39'0 0.0
2015-Mar-23 01:26N 35°19' E 139°39'0 0.0
2015-Mar-23 00:23N 35°19' E 139°39'0 0.0
2015-Mar-22 23:33N 35°19' E 139°39'2 1.8
2015-Mar-22 22:33N 35°19' E 139°41'0 0.1
2015-Mar-22 21:31N 35°19' E 139°41'0 0.0
2015-Mar-22 20:31N 35°19' E 139°41'0 0.1
2015-Mar-22 19:31N 35°19' E 139°41'0 0.0
2015-Mar-22 18:31N 35°19' E 139°41'0 0.1
2015-Mar-22 17:31N 35°19' E 139°41'0 0.1
2015-Mar-22 16:31N 35°19' E 139°41'0 0.2
2015-Mar-22 15:28N 35°19' E 139°41'0 0.0
2015-Mar-22 14:28N 35°19' E 139°41'0 0.1
2015-Mar-22 13:28N 35°19' E 139°41'6 6.7
2015-Mar-22 12:34N 35°15' E 139°47'1817.8
2015-Mar-22 11:33N 34°60' E 139°36'  

Dump ship's entire track history